createdAt,value
2022-09-28T00:04:16.482Z,39.74
2022-09-28T00:09:18.399Z,39.61
2022-09-28T00:14:21.113Z,39.64
2022-09-28T00:19:23.070Z,39.51
2022-09-28T00:24:27.719Z,39.86
2022-09-28T00:29:32.629Z,39.43
2022-09-28T00:34:41.434Z,39.63
2022-09-28T00:39:44.236Z,39.78
2022-09-28T00:44:49.568Z,39.85
2022-09-28T00:50:01.535Z,39.51
2022-09-28T00:55:08.313Z,39.56
2022-09-28T01:00:11.337Z,39.67
2022-09-28T01:05:14.329Z,39.79
2022-09-28T01:10:16.219Z,39.83
2022-09-28T01:15:22.046Z,39.66
2022-09-28T01:20:35.178Z,39.79
2022-09-28T01:25:54.892Z,39.67
2022-09-28T01:31:00.591Z,39.60
2022-09-28T01:36:28.566Z,39.76
2022-09-28T01:41:33.690Z,39.83
2022-09-28T01:46:45.107Z,39.68
2022-09-28T01:51:51.341Z,39.65
2022-09-28T01:57:12.173Z,39.69
2022-09-28T02:02:22.170Z,39.83
2022-09-28T02:07:29.424Z,39.60
2022-09-28T02:12:41.534Z,39.58
2022-09-28T02:17:44.054Z,39.61
2022-09-28T02:22:57.168Z,39.80
2022-09-28T02:28:07.367Z,39.64
2022-09-28T02:33:35.122Z,39.46
2022-09-28T02:38:38.271Z,39.66
2022-09-28T02:44:13.915Z,39.60
2022-09-28T02:49:26.985Z,39.96
2022-09-28T02:55:03.053Z,39.77
2022-09-28T03:00:13.115Z,39.45
2022-09-28T03:05:21.237Z,39.62
2022-09-28T03:10:37.552Z,39.52
2022-09-28T03:15:39.458Z,39.87
2022-09-28T03:20:41.356Z,39.93
2022-09-28T03:25:43.054Z,39.59
2022-09-28T03:30:44.762Z,39.79
2022-09-28T03:35:50.811Z,39.96
2022-09-28T03:40:54.850Z,40.00
2022-09-28T03:46:01.229Z,39.81
2022-09-28T03:51:07.116Z,39.65
2022-09-28T03:56:12.558Z,39.87
2022-09-28T04:01:18.335Z,39.90
2022-09-28T04:06:20.486Z,39.62
2022-09-28T04:11:22.513Z,39.46
2022-09-28T04:16:24.353Z,39.60
2022-09-28T04:21:26.365Z,39.78
2022-09-28T04:26:28.664Z,39.47
2022-09-28T04:31:31.191Z,39.86
2022-09-28T04:36:33.154Z,39.76
2022-09-28T04:41:35.041Z,39.46
2022-09-28T04:46:37.033Z,39.43
2022-09-28T04:51:39.014Z,39.45
2022-09-28T04:56:41.643Z,39.48
2022-09-28T05:01:43.661Z,39.71
2022-09-28T05:06:45.765Z,39.73
2022-09-28T05:11:50.075Z,39.75
2022-09-28T05:16:52.023Z,39.61
2022-09-28T05:21:54.482Z,39.48
2022-09-28T05:26:56.399Z,39.43
2022-09-28T05:31:58.276Z,39.44
2022-09-28T05:37:00.148Z,39.52
2022-09-28T05:42:02.045Z,39.47
2022-09-28T05:47:04.027Z,39.31
2022-09-28T05:52:05.824Z,39.52
2022-09-28T05:57:07.576Z,39.65
2022-09-28T06:02:11.082Z,39.45
2022-09-28T06:07:13.113Z,39.28
2022-09-28T06:12:16.274Z,39.28
2022-09-28T06:17:18.057Z,39.47
2022-09-28T06:22:19.871Z,39.65
2022-09-28T06:27:21.642Z,39.31
2022-09-28T06:32:23.556Z,39.80
2022-09-28T06:37:26.438Z,40.74
2022-09-28T06:42:28.448Z,40.30
2022-09-28T06:47:31.475Z,40.39
2022-09-28T06:52:33.278Z,40.00
2022-09-28T06:57:35.255Z,39.81
2022-09-28T07:02:37.171Z,40.04
2022-09-28T07:07:39.011Z,39.91
2022-09-28T07:12:40.968Z,39.82
2022-09-28T07:17:56.285Z,39.62
2022-09-28T07:23:16.937Z,40.57
2022-09-28T07:28:21.523Z,41.84
2022-09-28T07:33:25.370Z,41.85
2022-09-28T07:38:27.414Z,41.76
2022-09-28T07:43:29.330Z,41.55
2022-09-28T07:48:37.006Z,41.12
2022-09-28T07:53:39.078Z,40.71
2022-09-28T07:58:41.595Z,40.41
2022-09-28T08:03:48.368Z,40.17
2022-09-28T08:08:50.505Z,40.16
2022-09-28T08:13:55.593Z,40.12
2022-09-28T08:18:57.731Z,40.13
2022-09-28T08:23:59.625Z,39.95
2022-09-28T08:29:01.710Z,39.79
2022-09-28T08:34:03.552Z,39.97
2022-09-28T08:39:05.603Z,39.76
2022-09-28T08:44:25.349Z,39.96
2022-09-28T08:49:37.282Z,39.85
2022-09-28T08:54:56.485Z,39.99
2022-09-28T09:00:00.666Z,39.63
2022-09-28T09:05:15.048Z,40.00
2022-09-28T09:10:28.889Z,39.78
2022-09-28T09:15:43.735Z,39.83
2022-09-28T09:20:59.471Z,39.76
2022-09-28T09:26:12.642Z,39.63
2022-09-28T09:32:03.319Z,39.82
2022-09-28T09:37:31.069Z,39.63
2022-09-28T09:42:50.841Z,39.82
2022-09-28T09:48:26.611Z,40.06
2022-09-28T09:53:39.006Z,39.77
2022-09-28T09:59:08.255Z,40.27
2022-09-28T10:04:25.188Z,39.74
2022-09-28T10:09:47.551Z,39.88
2022-09-28T10:14:50.290Z,39.95
2022-09-28T10:19:52.311Z,39.88
2022-09-28T10:24:57.796Z,39.70
2022-09-28T10:30:12.351Z,40.20
2022-09-28T10:35:17.133Z,39.86
2022-09-28T10:40:31.031Z,39.80
2022-09-28T10:45:37.271Z,39.96
2022-09-28T10:50:40.839Z,39.66
2022-09-28T10:55:55.505Z,39.80
2022-09-28T11:01:03.889Z,39.74
2022-09-28T11:06:09.160Z,39.92
2022-09-28T11:11:13.292Z,39.87
2022-09-28T11:16:33.778Z,39.76
2022-09-28T11:21:44.167Z,39.95
2022-09-28T11:26:49.943Z,40.09
2022-09-28T11:31:52.160Z,40.22
2022-09-28T11:37:08.001Z,39.77
2022-09-28T11:42:36.583Z,39.87
2022-09-28T11:47:48.382Z,39.77
2022-09-28T11:52:56.138Z,40.24
2022-09-28T11:58:06.062Z,40.11
2022-09-28T12:03:25.536Z,39.85
2022-09-28T12:08:35.428Z,40.12
2022-09-28T12:13:47.917Z,39.78
2022-09-28T12:19:08.548Z,40.23
2022-09-28T12:24:27.773Z,40.03
2022-09-28T12:29:37.209Z,39.95
2022-09-28T12:34:42.772Z,39.77
2022-09-28T12:40:08.692Z,40.03
2022-09-28T12:46:10.337Z,40.13
2022-09-28T12:51:33.772Z,40.14
2022-09-28T12:56:47.227Z,40.09
2022-09-28T13:01:54.881Z,40.08
2022-09-28T13:07:05.978Z,39.89
2022-09-28T13:12:44.702Z,40.05
2022-09-28T13:17:50.218Z,39.85
2022-09-28T13:23:02.479Z,39.70
2022-09-28T13:28:06.077Z,40.10
2022-09-28T13:33:14.204Z,40.03
2022-09-28T13:38:18.867Z,39.77
2022-09-28T13:43:33.295Z,39.83
2022-09-28T13:48:51.701Z,39.97
2022-09-28T13:53:53.635Z,39.78
2022-09-28T13:58:58.886Z,39.98
2022-09-28T14:04:15.983Z,39.99
2022-09-28T14:09:48.807Z,40.15
2022-09-28T14:14:52.016Z,39.70
2022-09-28T14:20:00.669Z,39.84
2022-09-28T14:25:23.771Z,40.07
2022-09-28T14:30:46.358Z,39.71
2022-09-28T14:35:56.999Z,39.82
2022-09-28T14:41:25.348Z,39.69
2022-09-28T14:46:33.361Z,39.77
2022-09-28T14:51:35.593Z,39.95
2022-09-28T14:56:45.113Z,39.68
2022-09-28T15:02:10.911Z,39.88
2022-09-28T15:07:23.018Z,40.82
2022-09-28T15:12:26.507Z,41.09
2022-09-28T15:17:41.718Z,41.38
2022-09-28T15:22:48.421Z,40.95
2022-09-28T15:27:56.706Z,41.38
2022-09-28T15:33:18.934Z,41.42
2022-09-28T15:38:21.086Z,41.54
2022-09-28T15:43:33.087Z,41.83
2022-09-28T15:48:52.466Z,41.74
2022-09-28T15:54:17.827Z,42.04
2022-09-28T15:59:30.917Z,42.22
2022-09-28T16:04:37.552Z,42.34
2022-09-28T16:10:13.936Z,42.16
2022-09-28T16:15:25.439Z,41.43
2022-09-28T16:20:32.237Z,42.16
2022-09-28T16:25:37.627Z,41.28
2022-09-28T16:31:00.876Z,41.13
2022-09-28T16:36:03.652Z,40.91
2022-09-28T16:41:06.147Z,40.80
2022-09-28T16:46:13.671Z,40.54
2022-09-28T16:51:19.969Z,40.76
2022-09-28T16:56:21.961Z,40.78
2022-09-28T17:01:24.982Z,40.74
2022-09-28T17:06:27.533Z,40.34
2022-09-28T17:11:29.718Z,40.08
2022-09-28T17:16:57.679Z,40.51
2022-09-28T17:21:55.148Z,40.47
2022-09-28T17:26:57.237Z,40.11
2022-09-28T17:31:59.164Z,40.35
2022-09-28T17:37:00.888Z,39.99
2022-09-28T17:42:02.773Z,40.33
2022-09-28T17:47:04.536Z,40.18
2022-09-28T17:52:06.325Z,40.18
2022-09-28T17:57:10.061Z,40.25
2022-09-28T18:02:12.307Z,40.30
2022-09-28T18:07:14.123Z,40.25
2022-09-28T18:12:15.766Z,40.17
2022-09-28T18:17:17.638Z,40.18
2022-09-28T18:22:19.507Z,40.24
2022-09-28T18:27:21.530Z,40.06
2022-09-28T18:32:23.741Z,40.25
2022-09-28T18:37:25.654Z,41.29
2022-09-28T18:42:27.513Z,41.50
2022-09-28T18:47:29.536Z,41.49
2022-09-28T18:52:31.449Z,41.51
2022-09-28T18:57:33.913Z,41.24
2022-09-28T19:02:36.754Z,41.25
2022-09-28T19:07:38.674Z,41.18
2022-09-28T19:12:40.849Z,40.94
2022-09-28T19:17:42.748Z,41.30
2022-09-28T19:22:45.284Z,41.21
2022-09-28T19:27:48.288Z,41.03
2022-09-28T19:32:50.281Z,41.26
2022-09-28T19:37:52.536Z,41.34
2022-09-28T19:42:54.611Z,40.89
2022-09-28T19:47:59.564Z,40.95
2022-09-28T19:53:02.084Z,41.11
2022-09-28T19:58:04.201Z,40.84
2022-09-28T20:03:06.204Z,41.18
2022-09-28T20:08:09.655Z,41.03
2022-09-28T20:13:11.451Z,41.04
2022-09-28T20:18:13.616Z,40.95
2022-09-28T20:23:16.683Z,41.03
2022-09-28T20:28:19.233Z,40.98
2022-09-28T20:33:28.626Z,41.15
2022-09-28T20:38:31.539Z,41.23
2022-09-28T20:43:35.089Z,41.14
2022-09-28T20:48:37.528Z,41.06
2022-09-28T20:53:41.675Z,41.14
2022-09-28T20:58:43.687Z,40.96
2022-09-28T21:03:51.693Z,40.86
2022-09-28T21:08:54.754Z,40.62
2022-09-28T21:13:59.134Z,40.78
2022-09-28T21:19:00.987Z,40.67
2022-09-28T21:24:02.756Z,40.45
2022-09-28T21:29:13.313Z,40.27
2022-09-28T21:34:20.211Z,40.20
2022-09-28T21:39:22.383Z,40.42
2022-09-28T21:44:24.234Z,40.31
2022-09-28T21:49:25.894Z,40.43
2022-09-28T21:54:29.151Z,40.07
2022-09-28T21:59:31.101Z,40.01
2022-09-28T22:04:32.903Z,40.12
2022-09-28T22:09:34.818Z,40.22
2022-09-28T22:14:36.587Z,40.10
2022-09-28T22:19:38.428Z,40.05
2022-09-28T22:24:40.379Z,39.90
2022-09-28T22:29:42.935Z,40.01
2022-09-28T22:34:44.757Z,39.98
2022-09-28T22:39:46.670Z,40.31
2022-09-28T22:44:49.088Z,40.19
2022-09-28T22:49:51.158Z,40.20
2022-09-28T22:54:54.197Z,39.95
2022-09-28T22:59:56.051Z,40.09
2022-09-28T23:04:57.834Z,40.16
2022-09-28T23:10:00.867Z,39.98
2022-09-28T23:15:02.622Z,40.05
2022-09-28T23:20:04.763Z,40.04
2022-09-28T23:25:07.262Z,39.94
2022-09-28T23:30:10.244Z,39.98
2022-09-28T23:35:13.147Z,40.04
2022-09-28T23:40:15.096Z,40.12
2022-09-28T23:45:17.028Z,40.06
2022-09-28T23:50:18.794Z,39.97
2022-09-28T23:55:20.894Z,40.21
